Terminal Aerodrome Forecast
Issued by NWS Paducah, KY

Home | Current Version | Previous Version | Text Only | Print | Product List | Glossary On
Versions: 1 2 3 4 5 6 7 8 9 10 11 12 13 14 15 16 17 18 19 20 21
000
FTUS43 KPAH 171400 AAA
TAFPAH
TAF AMD
KPAH 171433Z 1715/1812 VRB04KT P6SM BKN025
     FM171600 33004KT P6SM SCT150 BKN250
     FM180200 01003KT P6SM OVC100=

USA.gov is the U.S. government's official web portal to all federal, state and local government web resources and services.